sensor_id;sensor_type;location;lat;lon;timestamp;temperature;humidity
18229;DHT22;9239;50.932;3.142;2023-07-20T00:00:18;16.90;99.90
18229;DHT22;9239;50.932;3.142;2023-07-20T00:02:45;16.90;99.90
18229;DHT22;9239;50.932;3.142;2023-07-20T00:05:12;16.90;99.90
18229;DHT22;9239;50.932;3.142;2023-07-20T00:07:39;16.90;99.90
18229;DHT22;9239;50.932;3.142;2023-07-20T00:10:06;16.80;99.90
18229;DHT22;9239;50.932;3.142;2023-07-20T00:12:33;16.80;99.90
18229;DHT22;9239;50.932;3.142;2023-07-20T00:15:00;16.80;99.90
18229;DHT22;9239;50.932;3.142;2023-07-20T00:17:28;16.70;99.90
18229;DHT22;9239;50.932;3.142;2023-07-20T00:19:55;16.70;99.90
18229;DHT22;9239;50.932;3.142;2023-07-20T00:22:22;16.70;99.90
18229;DHT22;9239;50.932;3.142;2023-07-20T00:24:49;16.60;99.90
18229;DHT22;9239;50.932;3.142;2023-07-20T00:27:16;16.60;99.90
18229;DHT22;9239;50.932;3.142;2023-07-20T00:29:43;16.60;99.90
18229;DHT22;9239;50.932;3.142;2023-07-20T00:32:10;16.60;99.90
18229;DHT22;9239;50.932;3.142;2023-07-20T00:34:38;16.60;99.90
18229;DHT22;9239;50.932;3.142;2023-07-20T00:37:05;16.60;99.90
18229;DHT22;9239;50.932;3.142;2023-07-20T00:39:32;16.50;99.90
18229;DHT22;9239;50.932;3.142;2023-07-20T00:41:59;16.60;99.90
18229;DHT22;9239;50.932;3.142;2023-07-20T00:44:26;16.60;99.90
18229;DHT22;9239;50.932;3.142;2023-07-20T00:46:53;16.60;99.90
18229;DHT22;9239;50.932;3.142;2023-07-20T00:49:20;16.60;99.90
18229;DHT22;9239;50.932;3.142;2023-07-20T00:51:49;16.60;99.90
18229;DHT22;9239;50.932;3.142;2023-07-20T00:54:17;16.60;99.90
18229;DHT22;9239;50.932;3.142;2023-07-20T00:56:45;16.60;99.90
18229;DHT22;9239;50.932;3.142;2023-07-20T00:59:13;16.50;99.90
18229;DHT22;9239;50.932;3.142;2023-07-20T01:01:40;16.40;99.90
18229;DHT22;9239;50.932;3.142;2023-07-20T01:04:07;16.40;99.90
18229;DHT22;9239;50.932;3.142;2023-07-20T01:06:43;16.50;99.90
18229;DHT22;9239;50.932;3.142;2023-07-20T01:09:16;16.40;99.90
18229;DHT22;9239;50.932;3.142;2023-07-20T01:11:53;16.30;99.90
18229;DHT22;9239;50.932;3.142;2023-07-20T01:14:22;16.30;99.90
18229;DHT22;9239;50.932;3.142;2023-07-20T01:16:50;16.30;99.90
18229;DHT22;9239;50.932;3.142;2023-07-20T01:19:18;16.30;99.90
18229;DHT22;9239;50.932;3.142;2023-07-20T01:21:55;16.20;99.90
18229;DHT22;9239;50.932;3.142;2023-07-20T01:24:49;16.20;99.90
18229;DHT22;9239;50.932;3.142;2023-07-20T01:30:46;16.30;99.90
18229;DHT22;9239;50.932;3.142;2023-07-20T01:33:19;16.20;99.90
18229;DHT22;9239;50.932;3.142;2023-07-20T01:35:51;16.20;99.90
18229;DHT22;9239;50.932;3.142;2023-07-20T01:38:20;16.20;99.90
18229;DHT22;9239;50.932;3.142;2023-07-20T01:40:48;16.20;99.90
18229;DHT22;9239;50.932;3.142;2023-07-20T01:43:16;16.20;99.90
18229;DHT22;9239;50.932;3.142;2023-07-20T01:45:43;16.20;99.90
18229;DHT22;9239;50.932;3.142;2023-07-20T01:48:10;16.20;99.90
18229;DHT22;9239;50.932;3.142;2023-07-20T01:50:38;16.20;99.90
18229;DHT22;9239;50.932;3.142;2023-07-20T01:53:05;16.20;99.90
18229;DHT22;9239;50.932;3.142;2023-07-20T01:55:32;16.20;99.90
18229;DHT22;9239;50.932;3.142;2023-07-20T01:57:59;16.20;99.90
18229;DHT22;9239;50.932;3.142;2023-07-20T02:00:27;16.20;99.90
18229;DHT22;9239;50.932;3.142;2023-07-20T02:02:54;16.20;99.90
18229;DHT22;9239;50.932;3.142;2023-07-20T02:05:21;16.20;99.90
18229;DHT22;9239;50.932;3.142;2023-07-20T02:07:49;16.20;99.90
18229;DHT22;9239;50.932;3.142;2023-07-20T02:10:16;16.20;99.90
18229;DHT22;9239;50.932;3.142;2023-07-20T02:12:43;16.20;99.90
18229;DHT22;9239;50.932;3.142;2023-07-20T02:15:10;16.30;99.90
18229;DHT22;9239;50.932;3.142;2023-07-20T02:17:39;16.30;99.90
18229;DHT22;9239;50.932;3.142;2023-07-20T02:20:07;16.30;99.90
18229;DHT22;9239;50.932;3.142;2023-07-20T02:22:35;16.30;99.90
18229;DHT22;9239;50.932;3.142;2023-07-20T02:25:05;16.20;99.90
18229;DHT22;9239;50.932;3.142;2023-07-20T02:27:32;16.20;99.90
18229;DHT22;9239;50.932;3.142;2023-07-20T02:29:59;16.30;99.90
18229;DHT22;9239;50.932;3.142;2023-07-20T02:32:27;16.30;99.90
18229;DHT22;9239;50.932;3.142;2023-07-20T02:34:54;16.30;99.90
18229;DHT22;9239;50.932;3.142;2023-07-20T02:37:21;16.30;99.90
18229;DHT22;9239;50.932;3.142;2023-07-20T02:39:48;16.30;99.90
18229;DHT22;9239;50.932;3.142;2023-07-20T02:42:16;16.40;99.90
18229;DHT22;9239;50.932;3.142;2023-07-20T02:44:43;16.30;99.90
18229;DHT22;9239;50.932;3.142;2023-07-20T02:47:10;16.30;99.90
18229;DHT22;9239;50.932;3.142;2023-07-20T02:49:37;16.40;99.90
18229;DHT22;9239;50.932;3.142;2023-07-20T02:52:04;16.40;99.90
18229;DHT22;9239;50.932;3.142;2023-07-20T02:54:31;16.40;99.90
18229;DHT22;9239;50.932;3.142;2023-07-20T02:56:58;16.40;99.90
18229;DHT22;9239;50.932;3.142;2023-07-20T02:59:28;16.50;99.90
18229;DHT22;9239;50.932;3.142;2023-07-20T03:01:55;16.40;99.90
18229;DHT22;9239;50.932;3.142;2023-07-20T03:04:23;16.50;99.90
18229;DHT22;9239;50.932;3.142;2023-07-20T03:06:52;16.50;99.90
18229;DHT22;9239;50.932;3.142;2023-07-20T03:09:19;16.50;99.90
18229;DHT22;9239;50.932;3.142;2023-07-20T03:11:46;16.50;99.90
18229;DHT22;9239;50.932;3.142;2023-07-20T03:14:13;16.50;99.90
18229;DHT22;9239;50.932;3.142;2023-07-20T03:16:41;16.50;99.90
18229;DHT22;9239;50.932;3.142;2023-07-20T03:19:08;16.50;99.90
18229;DHT22;9239;50.932;3.142;2023-07-20T03:21:35;16.50;99.90
18229;DHT22;9239;50.932;3.142;2023-07-20T03:24:06;16.50;99.90
18229;DHT22;9239;50.932;3.142;2023-07-20T03:26:33;16.50;99.90
18229;DHT22;9239;50.932;3.142;2023-07-20T03:29:00;16.50;99.90
18229;DHT22;9239;50.932;3.142;2023-07-20T03:31:27;16.50;99.90
18229;DHT22;9239;50.932;3.142;2023-07-20T03:33:55;16.50;99.90
18229;DHT22;9239;50.932;3.142;2023-07-20T03:36:22;16.50;99.90
18229;DHT22;9239;50.932;3.142;2023-07-20T03:38:49;16.50;99.90
18229;DHT22;9239;50.932;3.142;2023-07-20T03:41:16;16.60;99.90
18229;DHT22;9239;50.932;3.142;2023-07-20T03:43:45;16.60;99.90
18229;DHT22;9239;50.932;3.142;2023-07-20T03:46:12;16.60;99.90
18229;DHT22;9239;50.932;3.142;2023-07-20T03:48:39;16.60;99.90
18229;DHT22;9239;50.932;3.142;2023-07-20T03:51:08;16.60;99.90
18229;DHT22;9239;50.932;3.142;2023-07-20T03:53:35;16.60;99.90
18229;DHT22;9239;50.932;3.142;2023-07-20T03:56:02;16.60;99.90
18229;DHT22;9239;50.932;3.142;2023-07-20T03:58:29;16.60;99.90
18229;DHT22;9239;50.932;3.142;2023-07-20T04:00:57;16.60;99.90
18229;DHT22;9239;50.932;3.142;2023-07-20T04:03:24;16.50;99.90
18229;DHT22;9239;50.932;3.142;2023-07-20T04:05:53;16.50;99.90
18229;DHT22;9239;50.932;3.142;2023-07-20T04:08:23;16.60;99.90
18229;DHT22;9239;50.932;3.142;2023-07-20T04:10:50;16.60;99.90
18229;DHT22;9239;50.932;3.142;2023-07-20T04:13:17;16.60;99.90
18229;DHT22;9239;50.932;3.142;2023-07-20T04:15:44;16.70;99.90
18229;DHT22;9239;50.932;3.142;2023-07-20T04:18:11;16.70;99.90
18229;DHT22;9239;50.932;3.142;2023-07-20T04:20:38;16.70;99.90
18229;DHT22;9239;50.932;3.142;2023-07-20T04:23:05;16.70;99.90
18229;DHT22;9239;50.932;3.142;2023-07-20T04:25:33;16.70;99.90
18229;DHT22;9239;50.932;3.142;2023-07-20T04:28:04;16.80;99.90
18229;DHT22;9239;50.932;3.142;2023-07-20T04:30:34;16.80;99.90
18229;DHT22;9239;50.932;3.142;2023-07-20T04:33:01;16.80;99.90
18229;DHT22;9239;50.932;3.142;2023-07-20T04:35:51;16.70;99.90
18229;DHT22;9239;50.932;3.142;2023-07-20T04:38:19;16.60;99.90
18229;DHT22;9239;50.932;3.142;2023-07-20T04:40:48;16.50;99.90
18229;DHT22;9239;50.932;3.142;2023-07-20T04:43:17;16.60;99.90
18229;DHT22;9239;50.932;3.142;2023-07-20T04:45:44;16.60;99.90
18229;DHT22;9239;50.932;3.142;2023-07-20T04:48:12;16.60;99.90
18229;DHT22;9239;50.932;3.142;2023-07-20T04:50:40;16.60;99.90
18229;DHT22;9239;50.932;3.142;2023-07-20T04:53:08;16.60;99.90
18229;DHT22;9239;50.932;3.142;2023-07-20T04:55:36;16.70;99.90
18229;DHT22;9239;50.932;3.142;2023-07-20T04:58:04;16.80;99.90
18229;DHT22;9239;50.932;3.142;2023-07-20T05:00:33;16.80;99.90
18229;DHT22;9239;50.932;3.142;2023-07-20T05:03:00;16.80;99.90
18229;DHT22;9239;50.932;3.142;2023-07-20T05:05:27;16.80;99.90
18229;DHT22;9239;50.932;3.142;2023-07-20T05:07:53;16.90;99.90
18229;DHT22;9239;50.932;3.142;2023-07-20T05:10:20;17.00;99.90
18229;DHT22;9239;50.932;3.142;2023-07-20T05:12:47;17.00;99.90
18229;DHT22;9239;50.932;3.142;2023-07-20T05:15:16;17.00;99.90
18229;DHT22;9239;50.932;3.142;2023-07-20T05:17:43;16.90;99.90
18229;DHT22;9239;50.932;3.142;2023-07-20T05:20:10;16.90;99.90
18229;DHT22;9239;50.932;3.142;2023-07-20T05:22:38;17.00;99.90
18229;DHT22;9239;50.932;3.142;2023-07-20T05:25:07;17.00;99.90
18229;DHT22;9239;50.932;3.142;2023-07-20T05:27:36;17.10;99.90
18229;DHT22;9239;50.932;3.142;2023-07-20T05:30:03;17.20;99.90
18229;DHT22;9239;50.932;3.142;2023-07-20T05:32:32;17.20;99.90
18229;DHT22;9239;50.932;3.142;2023-07-20T05:34:59;17.20;99.90
18229;DHT22;9239;50.932;3.142;2023-07-20T05:37:26;17.20;99.90
18229;DHT22;9239;50.932;3.142;2023-07-20T05:39:53;17.30;99.90
18229;DHT22;9239;50.932;3.142;2023-07-20T05:42:20;17.30;99.90
18229;DHT22;9239;50.932;3.142;2023-07-20T05:44:47;17.20;99.90
18229;DHT22;9239;50.932;3.142;2023-07-20T05:47:15;17.10;99.90
18229;DHT22;9239;50.932;3.142;2023-07-20T05:49:43;17.20;99.90
18229;DHT22;9239;50.932;3.142;2023-07-20T05:52:10;17.20;99.90
18229;DHT22;9239;50.932;3.142;2023-07-20T05:54:37;17.30;99.90
18229;DHT22;9239;50.932;3.142;2023-07-20T05:57:05;17.30;99.90
18229;DHT22;9239;50.932;3.142;2023-07-20T05:59:32;17.30;99.90
18229;DHT22;9239;50.932;3.142;2023-07-20T06:01:59;17.40;99.90
18229;DHT22;9239;50.932;3.142;2023-07-20T06:04:26;17.30;99.90
18229;DHT22;9239;50.932;3.142;2023-07-20T06:06:54;17.30;99.90
18229;DHT22;9239;50.932;3.142;2023-07-20T06:09:21;17.50;99.90
18229;DHT22;9239;50.932;3.142;2023-07-20T06:11:48;17.60;99.90
18229;DHT22;9239;50.932;3.142;2023-07-20T06:14:15;17.80;99.90
18229;DHT22;9239;50.932;3.142;2023-07-20T06:16:42;18.00;99.90
18229;DHT22;9239;50.932;3.142;2023-07-20T06:19:09;18.20;99.90
18229;DHT22;9239;50.932;3.142;2023-07-20T06:21:37;18.30;99.90
18229;DHT22;9239;50.932;3.142;2023-07-20T06:24:06;18.40;99.90
18229;DHT22;9239;50.932;3.142;2023-07-20T06:26:33;18.60;99.90
18229;DHT22;9239;50.932;3.142;2023-07-20T06:29:04;18.70;99.90
18229;DHT22;9239;50.932;3.142;2023-07-20T06:31:31;18.90;99.90
18229;DHT22;9239;50.932;3.142;2023-07-20T06:33:58;19.00;99.90
18229;DHT22;9239;50.932;3.142;2023-07-20T06:36:25;19.20;99.90
18229;DHT22;9239;50.932;3.142;2023-07-20T06:38:52;19.30;99.90
18229;DHT22;9239;50.932;3.142;2023-07-20T06:41:21;19.40;99.90
18229;DHT22;9239;50.932;3.142;2023-07-20T06:43:48;19.50;99.90
18229;DHT22;9239;50.932;3.142;2023-07-20T06:46:15;19.60;99.90
18229;DHT22;9239;50.932;3.142;2023-07-20T06:48:42;19.60;99.90
18229;DHT22;9239;50.932;3.142;2023-07-20T06:51:08;19.60;99.90
18229;DHT22;9239;50.932;3.142;2023-07-20T06:53:35;19.60;99.90
18229;DHT22;9239;50.932;3.142;2023-07-20T06:56:03;19.60;99.90
18229;DHT22;9239;50.932;3.142;2023-07-20T06:58:31;19.40;99.90
18229;DHT22;9239;50.932;3.142;2023-07-20T07:00:59;19.50;99.90
18229;DHT22;9239;50.932;3.142;2023-07-20T07:03:26;19.50;99.90
18229;DHT22;9239;50.932;3.142;2023-07-20T07:05:55;19.60;99.90
18229;DHT22;9239;50.932;3.142;2023-07-20T07:08:22;19.60;99.90
18229;DHT22;9239;50.932;3.142;2023-07-20T07:10:50;19.70;99.90
18229;DHT22;9239;50.932;3.142;2023-07-20T07:13:17;19.80;99.90
18229;DHT22;9239;50.932;3.142;2023-07-20T07:15:45;20.00;99.90
18229;DHT22;9239;50.932;3.142;2023-07-20T07:18:12;20.20;99.90
18229;DHT22;9239;50.932;3.142;2023-07-20T07:20:39;20.00;99.90
18229;DHT22;9239;50.932;3.142;2023-07-20T07:23:06;20.00;99.90
18229;DHT22;9239;50.932;3.142;2023-07-20T07:25:33;20.00;99.90
18229;DHT22;9239;50.932;3.142;2023-07-20T07:28:00;20.00;99.90
18229;DHT22;9239;50.932;3.142;2023-07-20T07:30:27;20.00;99.90
18229;DHT22;9239;50.932;3.142;2023-07-20T07:32:55;20.10;99.90
18229;DHT22;9239;50.932;3.142;2023-07-20T07:35:22;20.20;99.90
18229;DHT22;9239;50.932;3.142;2023-07-20T07:37:50;20.30;99.90
18229;DHT22;9239;50.932;3.142;2023-07-20T07:40:17;20.40;99.90
18229;DHT22;9239;50.932;3.142;2023-07-20T07:42:44;20.60;99.90
18229;DHT22;9239;50.932;3.142;2023-07-20T07:45:11;20.60;99.90
18229;DHT22;9239;50.932;3.142;2023-07-20T07:47:39;20.60;99.90
18229;DHT22;9239;50.932;3.142;2023-07-20T07:50:08;20.60;99.90
18229;DHT22;9239;50.932;3.142;2023-07-20T07:52:36;20.50;99.90
18229;DHT22;9239;50.932;3.142;2023-07-20T07:55:03;20.20;99.90
18229;DHT22;9239;50.932;3.142;2023-07-20T07:57:30;20.20;99.90
18229;DHT22;9239;50.932;3.142;2023-07-20T07:59:57;20.10;99.90
18229;DHT22;9239;50.932;3.142;2023-07-20T08:02:24;20.10;99.90
18229;DHT22;9239;50.932;3.142;2023-07-20T08:04:51;19.90;99.90
18229;DHT22;9239;50.932;3.142;2023-07-20T08:07:20;19.90;99.90
18229;DHT22;9239;50.932;3.142;2023-07-20T08:09:46;20.00;99.90
18229;DHT22;9239;50.932;3.142;2023-07-20T08:12:13;20.00;99.90
18229;DHT22;9239;50.932;3.142;2023-07-20T08:14:43;20.20;99.90
18229;DHT22;9239;50.932;3.142;2023-07-20T08:17:10;20.30;99.90
18229;DHT22;9239;50.932;3.142;2023-07-20T08:19:37;20.50;99.90
18229;DHT22;9239;50.932;3.142;2023-07-20T08:22:07;20.70;99.90
18229;DHT22;9239;50.932;3.142;2023-07-20T08:24:39;20.90;99.90
18229;DHT22;9239;50.932;3.142;2023-07-20T08:27:06;20.90;99.90
18229;DHT22;9239;50.932;3.142;2023-07-20T08:29:34;20.90;99.90
18229;DHT22;9239;50.932;3.142;2023-07-20T08:32:00;20.90;99.90
18229;DHT22;9239;50.932;3.142;2023-07-20T08:34:27;20.80;99.90
18229;DHT22;9239;50.932;3.142;2023-07-20T08:36:54;20.70;99.90
18229;DHT22;9239;50.932;3.142;2023-07-20T08:39:22;20.70;99.90
18229;DHT22;9239;50.932;3.142;2023-07-20T08:41:51;20.80;99.90
18229;DHT22;9239;50.932;3.142;2023-07-20T08:44:18;20.90;99.90
18229;DHT22;9239;50.932;3.142;2023-07-20T08:46:48;20.90;99.90
18229;DHT22;9239;50.932;3.142;2023-07-20T08:49:16;21.10;99.90
18229;DHT22;9239;50.932;3.142;2023-07-20T08:51:46;21.20;99.90
18229;DHT22;9239;50.932;3.142;2023-07-20T08:54:13;21.40;99.90
18229;DHT22;9239;50.932;3.142;2023-07-20T08:56:41;21.50;99.90
18229;DHT22;9239;50.932;3.142;2023-07-20T08:59:12;21.40;99.90
18229;DHT22;9239;50.932;3.142;2023-07-20T09:01:39;21.50;99.90
18229;DHT22;9239;50.932;3.142;2023-07-20T09:04:07;21.50;99.90
18229;DHT22;9239;50.932;3.142;2023-07-20T09:06:35;21.60;99.90
18229;DHT22;9239;50.932;3.142;2023-07-20T09:09:02;21.70;99.90
18229;DHT22;9239;50.932;3.142;2023-07-20T09:11:29;21.50;99.90
18229;DHT22;9239;50.932;3.142;2023-07-20T09:14:03;21.40;99.90
18229;DHT22;9239;50.932;3.142;2023-07-20T09:16:31;21.50;99.90
18229;DHT22;9239;50.932;3.142;2023-07-20T09:18:58;21.40;99.90
18229;DHT22;9239;50.932;3.142;2023-07-20T09:21:29;21.50;99.90
18229;DHT22;9239;50.932;3.142;2023-07-20T09:23:57;21.40;99.90
18229;DHT22;9239;50.932;3.142;2023-07-20T09:26:23;21.60;99.90
18229;DHT22;9239;50.932;3.142;2023-07-20T09:28:52;21.70;99.90
18229;DHT22;9239;50.932;3.142;2023-07-20T09:31:21;21.60;99.90
18229;DHT22;9239;50.932;3.142;2023-07-20T09:33:51;21.60;99.90
18229;DHT22;9239;50.932;3.142;2023-07-20T09:36:19;21.60;99.90
18229;DHT22;9239;50.932;3.142;2023-07-20T09:38:46;21.50;99.90
18229;DHT22;9239;50.932;3.142;2023-07-20T09:41:13;21.40;99.90
18229;DHT22;9239;50.932;3.142;2023-07-20T09:43:41;21.50;99.90
18229;DHT22;9239;50.932;3.142;2023-07-20T09:46:08;21.40;99.90
18229;DHT22;9239;50.932;3.142;2023-07-20T09:48:35;21.20;99.90
18229;DHT22;9239;50.932;3.142;2023-07-20T09:51:03;21.20;99.90
18229;DHT22;9239;50.932;3.142;2023-07-20T09:53:32;21.10;99.90
18229;DHT22;9239;50.932;3.142;2023-07-20T09:56:00;21.00;99.90
18229;DHT22;9239;50.932;3.142;2023-07-20T09:58:27;20.90;99.90
18229;DHT22;9239;50.932;3.142;2023-07-20T10:00:57;20.90;99.90
18229;DHT22;9239;50.932;3.142;2023-07-20T10:03:28;20.80;99.90
18229;DHT22;9239;50.932;3.142;2023-07-20T10:05:57;20.60;99.90
18229;DHT22;9239;50.932;3.142;2023-07-20T10:08:29;20.50;99.90
18229;DHT22;9239;50.932;3.142;2023-07-20T10:10:57;20.50;99.90
18229;DHT22;9239;50.932;3.142;2023-07-20T10:13:26;20.50;99.90
18229;DHT22;9239;50.932;3.142;2023-07-20T10:15:54;20.40;99.90
18229;DHT22;9239;50.932;3.142;2023-07-20T10:18:28;20.40;99.90
18229;DHT22;9239;50.932;3.142;2023-07-20T10:20:56;20.40;99.90
18229;DHT22;9239;50.932;3.142;2023-07-20T10:23:29;20.40;99.90
18229;DHT22;9239;50.932;3.142;2023-07-20T10:25:57;20.40;99.90
18229;DHT22;9239;50.932;3.142;2023-07-20T10:28:24;20.20;99.90
18229;DHT22;9239;50.932;3.142;2023-07-20T10:30:51;20.20;99.90
18229;DHT22;9239;50.932;3.142;2023-07-20T10:33:18;20.00;99.90
18229;DHT22;9239;50.932;3.142;2023-07-20T10:35:53;20.00;99.90
18229;DHT22;9239;50.932;3.142;2023-07-20T10:38:39;20.00;99.90
18229;DHT22;9239;50.932;3.142;2023-07-20T10:41:17;19.90;99.90
18229;DHT22;9239;50.932;3.142;2023-07-20T10:43:45;19.80;99.90
18229;DHT22;9239;50.932;3.142;2023-07-20T10:46:12;19.70;99.90
18229;DHT22;9239;50.932;3.142;2023-07-20T10:49:00;19.70;99.90
18229;DHT22;9239;50.932;3.142;2023-07-20T10:51:27;19.80;99.90
18229;DHT22;9239;50.932;3.142;2023-07-20T10:53:56;19.90;99.90
18229;DHT22;9239;50.932;3.142;2023-07-20T10:56:26;20.00;99.90
18229;DHT22;9239;50.932;3.142;2023-07-20T10:58:58;19.90;99.90
18229;DHT22;9239;50.932;3.142;2023-07-20T11:01:28;19.90;99.90
18229;DHT22;9239;50.932;3.142;2023-07-20T11:03:58;20.00;99.90
18229;DHT22;9239;50.932;3.142;2023-07-20T11:06:32;20.10;99.90
18229;DHT22;9239;50.932;3.142;2023-07-20T11:09:12;20.20;99.90
18229;DHT22;9239;50.932;3.142;2023-07-20T11:11:41;20.20;99.90
18229;DHT22;9239;50.932;3.142;2023-07-20T11:14:09;20.20;99.90
18229;DHT22;9239;50.932;3.142;2023-07-20T11:16:40;20.30;99.90
18229;DHT22;9239;50.932;3.142;2023-07-20T11:19:14;20.40;99.90
18229;DHT22;9239;50.932;3.142;2023-07-20T11:21:43;20.40;99.90
18229;DHT22;9239;50.932;3.142;2023-07-20T11:24:12;20.50;99.90
18229;DHT22;9239;50.932;3.142;2023-07-20T11:26:42;20.70;99.90
18229;DHT22;9239;50.932;3.142;2023-07-20T11:29:10;20.80;99.90
18229;DHT22;9239;50.932;3.142;2023-07-20T11:31:37;20.90;99.90
18229;DHT22;9239;50.932;3.142;2023-07-20T11:34:04;20.90;99.90
18229;DHT22;9239;50.932;3.142;2023-07-20T11:36:31;21.00;99.90
18229;DHT22;9239;50.932;3.142;2023-07-20T11:38:59;21.20;99.90
18229;DHT22;9239;50.932;3.142;2023-07-20T11:41:28;21.40;99.90
18229;DHT22;9239;50.932;3.142;2023-07-20T11:43:55;21.50;99.90
18229;DHT22;9239;50.932;3.142;2023-07-20T11:46:22;21.70;99.90
18229;DHT22;9239;50.932;3.142;2023-07-20T11:48:49;21.80;99.90
18229;DHT22;9239;50.932;3.142;2023-07-20T11:51:21;21.90;99.90
18229;DHT22;9239;50.932;3.142;2023-07-20T11:53:49;21.90;99.90
18229;DHT22;9239;50.932;3.142;2023-07-20T11:56:16;21.90;99.90
18229;DHT22;9239;50.932;3.142;2023-07-20T11:58:45;22.10;99.90
18229;DHT22;9239;50.932;3.142;2023-07-20T12:01:12;22.10;99.90
18229;DHT22;9239;50.932;3.142;2023-07-20T12:03:39;22.10;99.90
18229;DHT22;9239;50.932;3.142;2023-07-20T12:06:07;22.10;99.90
18229;DHT22;9239;50.932;3.142;2023-07-20T12:08:34;22.10;99.90
18229;DHT22;9239;50.932;3.142;2023-07-20T12:11:01;22.40;99.90
18229;DHT22;9239;50.932;3.142;2023-07-20T12:13:36;22.70;99.90
18229;DHT22;9239;50.932;3.142;2023-07-20T12:16:12;22.80;99.90
18229;DHT22;9239;50.932;3.142;2023-07-20T12:18:40;22.60;99.90
18229;DHT22;9239;50.932;3.142;2023-07-20T12:21:07;22.40;99.90
18229;DHT22;9239;50.932;3.142;2023-07-20T12:23:38;22.20;99.90
18229;DHT22;9239;50.932;3.142;2023-07-20T12:26:08;21.60;99.90
18229;DHT22;9239;50.932;3.142;2023-07-20T12:28:38;21.50;99.90
18229;DHT22;9239;50.932;3.142;2023-07-20T12:31:06;21.40;99.90
18229;DHT22;9239;50.932;3.142;2023-07-20T12:33:35;21.30;99.90
18229;DHT22;9239;50.932;3.142;2023-07-20T12:36:02;21.20;99.90
18229;DHT22;9239;50.932;3.142;2023-07-20T12:38:29;21.10;99.90
18229;DHT22;9239;50.932;3.142;2023-07-20T12:40:57;21.10;99.90
18229;DHT22;9239;50.932;3.142;2023-07-20T12:43:25;21.00;99.90
18229;DHT22;9239;50.932;3.142;2023-07-20T12:45:52;20.80;99.90
18229;DHT22;9239;50.932;3.142;2023-07-20T12:48:20;19.90;99.90
18229;DHT22;9239;50.932;3.142;2023-07-20T12:50:48;18.50;99.90
18229;DHT22;9239;50.932;3.142;2023-07-20T12:53:15;17.80;99.90
18229;DHT22;9239;50.932;3.142;2023-07-20T12:55:42;17.10;99.90
18229;DHT22;9239;50.932;3.142;2023-07-20T12:58:11;16.90;99.90
18229;DHT22;9239;50.932;3.142;2023-07-20T13:00:38;16.80;99.90
18229;DHT22;9239;50.932;3.142;2023-07-20T13:03:05;16.80;99.90
18229;DHT22;9239;50.932;3.142;2023-07-20T13:05:34;16.80;99.90
18229;DHT22;9239;50.932;3.142;2023-07-20T13:08:03;16.80;99.90
18229;DHT22;9239;50.932;3.142;2023-07-20T13:10:31;16.80;99.90
18229;DHT22;9239;50.932;3.142;2023-07-20T13:12:58;16.70;99.90
18229;DHT22;9239;50.932;3.142;2023-07-20T13:15:30;16.70;99.90
18229;DHT22;9239;50.932;3.142;2023-07-20T13:17:58;16.70;99.90
18229;DHT22;9239;50.932;3.142;2023-07-20T13:20:26;16.60;99.90
18229;DHT22;9239;50.932;3.142;2023-07-20T13:22:53;16.70;99.90
18229;DHT22;9239;50.932;3.142;2023-07-20T13:25:21;16.80;99.90
18229;DHT22;9239;50.932;3.142;2023-07-20T13:27:48;16.90;99.90
18229;DHT22;9239;50.932;3.142;2023-07-20T13:30:15;17.00;99.90
18229;DHT22;9239;50.932;3.142;2023-07-20T13:32:43;17.00;99.90
18229;DHT22;9239;50.932;3.142;2023-07-20T13:35:10;17.10;99.90
18229;DHT22;9239;50.932;3.142;2023-07-20T13:37:37;17.10;99.90
18229;DHT22;9239;50.932;3.142;2023-07-20T13:40:05;16.90;99.90
18229;DHT22;9239;50.932;3.142;2023-07-20T13:42:35;16.90;99.90
18229;DHT22;9239;50.932;3.142;2023-07-20T13:45:03;16.70;99.90
18229;DHT22;9239;50.932;3.142;2023-07-20T13:47:30;16.80;99.90
18229;DHT22;9239;50.932;3.142;2023-07-20T13:49:57;16.80;99.90
18229;DHT22;9239;50.932;3.142;2023-07-20T13:52:24;16.90;99.90
18229;DHT22;9239;50.932;3.142;2023-07-20T13:54:51;16.90;99.90
18229;DHT22;9239;50.932;3.142;2023-07-20T13:57:18;16.90;99.90
18229;DHT22;9239;50.932;3.142;2023-07-20T13:59:46;17.00;99.90
18229;DHT22;9239;50.932;3.142;2023-07-20T14:02:14;17.00;99.90
18229;DHT22;9239;50.932;3.142;2023-07-20T14:04:41;16.90;99.90
18229;DHT22;9239;50.932;3.142;2023-07-20T14:07:08;17.00;99.90
18229;DHT22;9239;50.932;3.142;2023-07-20T14:09:35;17.00;99.90
18229;DHT22;9239;50.932;3.142;2023-07-20T14:12:02;17.10;99.90
18229;DHT22;9239;50.932;3.142;2023-07-20T14:14:29;17.10;99.90
18229;DHT22;9239;50.932;3.142;2023-07-20T14:16:57;17.30;99.90
18229;DHT22;9239;50.932;3.142;2023-07-20T14:19:24;17.40;99.90
18229;DHT22;9239;50.932;3.142;2023-07-20T14:21:51;17.40;99.90
18229;DHT22;9239;50.932;3.142;2023-07-20T14:24:18;17.50;99.90
18229;DHT22;9239;50.932;3.142;2023-07-20T14:26:45;17.60;99.90
18229;DHT22;9239;50.932;3.142;2023-07-20T14:29:13;17.70;99.90
18229;DHT22;9239;50.932;3.142;2023-07-20T14:31:39;17.80;99.90
18229;DHT22;9239;50.932;3.142;2023-07-20T14:34:08;17.90;99.90
18229;DHT22;9239;50.932;3.142;2023-07-20T14:36:35;18.00;99.90
18229;DHT22;9239;50.932;3.142;2023-07-20T14:39:02;18.00;99.90
18229;DHT22;9239;50.932;3.142;2023-07-20T14:41:30;18.10;99.90
18229;DHT22;9239;50.932;3.142;2023-07-20T14:43:56;18.10;99.90
18229;DHT22;9239;50.932;3.142;2023-07-20T14:46:23;18.10;99.90
18229;DHT22;9239;50.932;3.142;2023-07-20T14:48:50;18.10;99.90
18229;DHT22;9239;50.932;3.142;2023-07-20T14:51:19;18.10;99.90
18229;DHT22;9239;50.932;3.142;2023-07-20T14:53:46;18.10;99.90
18229;DHT22;9239;50.932;3.142;2023-07-20T14:56:12;18.20;99.90
18229;DHT22;9239;50.932;3.142;2023-07-20T14:58:39;18.20;99.90
18229;DHT22;9239;50.932;3.142;2023-07-20T15:01:06;18.30;99.90
18229;DHT22;9239;50.932;3.142;2023-07-20T15:03:33;18.40;99.90
18229;DHT22;9239;50.932;3.142;2023-07-20T15:06:01;18.50;99.90
18229;DHT22;9239;50.932;3.142;2023-07-20T15:08:30;18.60;99.90
18229;DHT22;9239;50.932;3.142;2023-07-20T15:10:57;18.60;99.90
18229;DHT22;9239;50.932;3.142;2023-07-20T15:13:23;18.50;99.90
18229;DHT22;9239;50.932;3.142;2023-07-20T15:15:51;18.60;99.90
18229;DHT22;9239;50.932;3.142;2023-07-20T15:18:18;18.60;99.90
18229;DHT22;9239;50.932;3.142;2023-07-20T15:20:45;18.60;99.90
18229;DHT22;9239;50.932;3.142;2023-07-20T15:23:13;18.60;99.90
18229;DHT22;9239;50.932;3.142;2023-07-20T15:25:42;18.70;99.90
18229;DHT22;9239;50.932;3.142;2023-07-20T15:28:09;18.70;99.90
18229;DHT22;9239;50.932;3.142;2023-07-20T15:30:36;18.70;99.90
18229;DHT22;9239;50.932;3.142;2023-07-20T15:33:03;18.60;99.90
18229;DHT22;9239;50.932;3.142;2023-07-20T15:35:29;18.60;99.90
18229;DHT22;9239;50.932;3.142;2023-07-20T15:37:56;18.60;99.90
18229;DHT22;9239;50.932;3.142;2023-07-20T15:40:25;18.60;99.90
18229;DHT22;9239;50.932;3.142;2023-07-20T15:42:53;18.70;99.90
18229;DHT22;9239;50.932;3.142;2023-07-20T15:45:20;18.70;99.90
18229;DHT22;9239;50.932;3.142;2023-07-20T15:47:47;18.70;99.90
18229;DHT22;9239;50.932;3.142;2023-07-20T15:50:14;18.70;99.90
18229;DHT22;9239;50.932;3.142;2023-07-20T15:52:41;18.80;99.90